sensor_id;sensor_type;location;lat;lon;timestamp;temperature;humidity
29817;DHT22;16805;52.956;5.906;2023-06-22T00:00:55;20.90;99.90
29817;DHT22;16805;52.956;5.906;2023-06-22T00:03:22;20.90;99.90
29817;DHT22;16805;52.956;5.906;2023-06-22T00:05:49;20.90;99.90
29817;DHT22;16805;52.956;5.906;2023-06-22T00:08:18;20.80;99.90
29817;DHT22;16805;52.956;5.906;2023-06-22T00:10:45;20.80;99.90
29817;DHT22;16805;52.956;5.906;2023-06-22T00:13:12;20.80;99.90
29817;DHT22;16805;52.956;5.906;2023-06-22T00:21:16;20.70;99.90
29817;DHT22;16805;52.956;5.906;2023-06-22T00:23:42;20.60;99.90
29817;DHT22;16805;52.956;5.906;2023-06-22T00:26:08;20.60;99.90
29817;DHT22;16805;52.956;5.906;2023-06-22T00:28:34;20.60;99.90
29817;DHT22;16805;52.956;5.906;2023-06-22T00:31:00;20.60;99.90
29817;DHT22;16805;52.956;5.906;2023-06-22T00:33:26;20.60;99.90
29817;DHT22;16805;52.956;5.906;2023-06-22T00:35:53;20.50;99.90
29817;DHT22;16805;52.956;5.906;2023-06-22T00:38:20;20.60;99.90
29817;DHT22;16805;52.956;5.906;2023-06-22T00:40:46;20.50;99.90
29817;DHT22;16805;52.956;5.906;2023-06-22T00:43:11;20.50;99.90
29817;DHT22;16805;52.956;5.906;2023-06-22T00:45:38;20.50;99.90
29817;DHT22;16805;52.956;5.906;2023-06-22T00:48:03;20.50;99.90
29817;DHT22;16805;52.956;5.906;2023-06-22T00:50:31;20.50;99.90
29817;DHT22;16805;52.956;5.906;2023-06-22T00:53:09;20.50;99.90
29817;DHT22;16805;52.956;5.906;2023-06-22T00:55:41;20.50;99.90
29817;DHT22;16805;52.956;5.906;2023-06-22T00:58:09;20.50;99.90
29817;DHT22;16805;52.956;5.906;2023-06-22T01:00:36;20.40;99.90
29817;DHT22;16805;52.956;5.906;2023-06-22T01:03:03;20.30;99.90
29817;DHT22;16805;52.956;5.906;2023-06-22T01:05:29;20.30;99.90
29817;DHT22;16805;52.956;5.906;2023-06-22T01:08:18;20.10;99.90
29817;DHT22;16805;52.956;5.906;2023-06-22T01:10:55;20.10;99.90
29817;DHT22;16805;52.956;5.906;2023-06-22T01:16:09;20.10;99.90
29817;DHT22;16805;52.956;5.906;2023-06-22T01:18:39;20.10;99.90
29817;DHT22;16805;52.956;5.906;2023-06-22T01:21:07;20.00;99.90
29817;DHT22;16805;52.956;5.906;2023-06-22T01:28:50;19.90;99.90
29817;DHT22;16805;52.956;5.906;2023-06-22T01:31:20;19.90;99.90
29817;DHT22;16805;52.956;5.906;2023-06-22T01:33:51;19.80;99.90
29817;DHT22;16805;52.956;5.906;2023-06-22T01:36:18;19.80;99.90
29817;DHT22;16805;52.956;5.906;2023-06-22T01:38:45;19.70;99.90
29817;DHT22;16805;52.956;5.906;2023-06-22T01:41:11;19.80;99.90
29817;DHT22;16805;52.956;5.906;2023-06-22T01:43:38;19.70;99.90
29817;DHT22;16805;52.956;5.906;2023-06-22T01:46:04;19.70;99.90
29817;DHT22;16805;52.956;5.906;2023-06-22T01:48:30;19.70;99.90
29817;DHT22;16805;52.956;5.906;2023-06-22T01:50:57;19.70;99.90
29817;DHT22;16805;52.956;5.906;2023-06-22T01:53:24;19.70;99.90
29817;DHT22;16805;52.956;5.906;2023-06-22T01:55:49;19.70;99.90
29817;DHT22;16805;52.956;5.906;2023-06-22T01:58:16;19.70;99.90
29817;DHT22;16805;52.956;5.906;2023-06-22T02:00:48;19.60;99.90
29817;DHT22;16805;52.956;5.906;2023-06-22T02:03:21;19.50;99.90
29817;DHT22;16805;52.956;5.906;2023-06-22T02:05:50;19.50;99.90
29817;DHT22;16805;52.956;5.906;2023-06-22T02:08:39;19.50;99.90
29817;DHT22;16805;52.956;5.906;2023-06-22T02:11:08;19.40;99.90
29817;DHT22;16805;52.956;5.906;2023-06-22T02:13:35;19.40;99.90
29817;DHT22;16805;52.956;5.906;2023-06-22T02:16:01;19.50;99.90
29817;DHT22;16805;52.956;5.906;2023-06-22T02:18:27;19.40;99.90
29817;DHT22;16805;52.956;5.906;2023-06-22T02:20:53;19.30;99.90
29817;DHT22;16805;52.956;5.906;2023-06-22T02:23:19;19.20;99.90
29817;DHT22;16805;52.956;5.906;2023-06-22T02:25:45;19.20;99.90
29817;DHT22;16805;52.956;5.906;2023-06-22T02:28:10;19.10;99.90
29817;DHT22;16805;52.956;5.906;2023-06-22T02:30:36;19.10;99.90
29817;DHT22;16805;52.956;5.906;2023-06-22T02:33:02;19.10;99.90
29817;DHT22;16805;52.956;5.906;2023-06-22T02:35:28;19.10;99.90
29817;DHT22;16805;52.956;5.906;2023-06-22T02:38:00;19.20;99.90
29817;DHT22;16805;52.956;5.906;2023-06-22T02:40:28;19.20;99.90
29817;DHT22;16805;52.956;5.906;2023-06-22T02:42:54;19.20;99.90
29817;DHT22;16805;52.956;5.906;2023-06-22T02:45:20;19.20;99.90
29817;DHT22;16805;52.956;5.906;2023-06-22T02:47:46;19.20;99.90
29817;DHT22;16805;52.956;5.906;2023-06-22T02:50:13;19.20;99.90
29817;DHT22;16805;52.956;5.906;2023-06-22T02:52:39;19.10;99.90
29817;DHT22;16805;52.956;5.906;2023-06-22T02:55:05;19.10;99.90
29817;DHT22;16805;52.956;5.906;2023-06-22T02:57:32;19.10;99.90
29817;DHT22;16805;52.956;5.906;2023-06-22T02:59:58;19.10;99.90
29817;DHT22;16805;52.956;5.906;2023-06-22T03:02:24;19.10;99.90
29817;DHT22;16805;52.956;5.906;2023-06-22T03:04:51;19.10;99.90
29817;DHT22;16805;52.956;5.906;2023-06-22T03:07:20;19.10;99.90
29817;DHT22;16805;52.956;5.906;2023-06-22T03:09:46;19.00;99.90
29817;DHT22;16805;52.956;5.906;2023-06-22T03:12:11;18.90;99.90
29817;DHT22;16805;52.956;5.906;2023-06-22T03:14:37;19.00;99.90
29817;DHT22;16805;52.956;5.906;2023-06-22T03:17:04;19.00;99.90
29817;DHT22;16805;52.956;5.906;2023-06-22T03:19:30;19.00;99.90
29817;DHT22;16805;52.956;5.906;2023-06-22T03:22:00;19.00;99.90
29817;DHT22;16805;52.956;5.906;2023-06-22T03:24:26;19.00;99.90
29817;DHT22;16805;52.956;5.906;2023-06-22T03:26:54;19.00;99.90
29817;DHT22;16805;52.956;5.906;2023-06-22T03:29:20;18.90;99.90
29817;DHT22;16805;52.956;5.906;2023-06-22T03:31:46;18.90;99.90
29817;DHT22;16805;52.956;5.906;2023-06-22T03:34:11;18.90;99.90
29817;DHT22;16805;52.956;5.906;2023-06-22T03:36:37;18.90;99.90
29817;DHT22;16805;52.956;5.906;2023-06-22T03:39:03;18.80;99.90
29817;DHT22;16805;52.956;5.906;2023-06-22T03:41:28;18.80;99.90
29817;DHT22;16805;52.956;5.906;2023-06-22T03:43:54;18.80;99.90
29817;DHT22;16805;52.956;5.906;2023-06-22T03:46:20;18.70;99.90
29817;DHT22;16805;52.956;5.906;2023-06-22T03:48:45;18.70;99.90
29817;DHT22;16805;52.956;5.906;2023-06-22T03:51:11;18.70;99.90
29817;DHT22;16805;52.956;5.906;2023-06-22T03:53:37;18.60;99.90
29817;DHT22;16805;52.956;5.906;2023-06-22T03:56:03;18.60;99.90
29817;DHT22;16805;52.956;5.906;2023-06-22T03:58:28;18.60;99.90
29817;DHT22;16805;52.956;5.906;2023-06-22T04:00:58;18.60;99.90
29817;DHT22;16805;52.956;5.906;2023-06-22T04:03:23;18.70;99.90
29817;DHT22;16805;52.956;5.906;2023-06-22T04:05:49;18.70;99.90
29817;DHT22;16805;52.956;5.906;2023-06-22T04:08:15;18.70;99.90
29817;DHT22;16805;52.956;5.906;2023-06-22T04:10:41;18.70;99.90
29817;DHT22;16805;52.956;5.906;2023-06-22T04:13:07;18.70;99.90
29817;DHT22;16805;52.956;5.906;2023-06-22T04:15:33;18.70;99.90
29817;DHT22;16805;52.956;5.906;2023-06-22T04:17:58;18.70;99.90
29817;DHT22;16805;52.956;5.906;2023-06-22T04:20:24;18.70;99.90
29817;DHT22;16805;52.956;5.906;2023-06-22T04:22:53;18.70;99.90
29817;DHT22;16805;52.956;5.906;2023-06-22T04:25:19;18.70;99.90
29817;DHT22;16805;52.956;5.906;2023-06-22T04:27:45;18.70;99.90
29817;DHT22;16805;52.956;5.906;2023-06-22T04:30:11;18.80;99.90
29817;DHT22;16805;52.956;5.906;2023-06-22T04:32:40;18.80;99.90
29817;DHT22;16805;52.956;5.906;2023-06-22T04:35:07;18.80;99.90
29817;DHT22;16805;52.956;5.906;2023-06-22T04:37:33;18.90;99.90
29817;DHT22;16805;52.956;5.906;2023-06-22T04:39:59;18.90;99.90
29817;DHT22;16805;52.956;5.906;2023-06-22T04:42:27;18.90;99.90
29817;DHT22;16805;52.956;5.906;2023-06-22T04:44:53;19.00;99.90
29817;DHT22;16805;52.956;5.906;2023-06-22T04:47:19;19.10;99.90
29817;DHT22;16805;52.956;5.906;2023-06-22T04:49:45;19.20;99.90
29817;DHT22;16805;52.956;5.906;2023-06-22T04:52:13;19.30;99.90
29817;DHT22;16805;52.956;5.906;2023-06-22T04:54:40;19.40;99.90
29817;DHT22;16805;52.956;5.906;2023-06-22T04:57:13;19.60;99.90
29817;DHT22;16805;52.956;5.906;2023-06-22T05:12:36;20.10;99.90
29817;DHT22;16805;52.956;5.906;2023-06-22T05:15:02;20.20;99.90
29817;DHT22;16805;52.956;5.906;2023-06-22T05:17:28;20.20;99.90
29817;DHT22;16805;52.956;5.906;2023-06-22T05:19:54;20.30;99.90
29817;DHT22;16805;52.956;5.906;2023-06-22T05:22:20;20.40;99.90
29817;DHT22;16805;52.956;5.906;2023-06-22T05:24:46;20.40;99.90
29817;DHT22;16805;52.956;5.906;2023-06-22T05:27:13;20.50;99.90
29817;DHT22;16805;52.956;5.906;2023-06-22T05:29:39;20.60;99.90
29817;DHT22;16805;52.956;5.906;2023-06-22T05:32:05;20.70;99.90
29817;DHT22;16805;52.956;5.906;2023-06-22T05:34:32;20.90;99.90
29817;DHT22;16805;52.956;5.906;2023-06-22T05:36:57;20.90;99.90
29817;DHT22;16805;52.956;5.906;2023-06-22T05:39:26;21.00;99.90
29817;DHT22;16805;52.956;5.906;2023-06-22T05:41:52;21.00;99.90
29817;DHT22;16805;52.956;5.906;2023-06-22T05:44:18;21.00;99.90
29817;DHT22;16805;52.956;5.906;2023-06-22T05:46:44;21.00;99.90
29817;DHT22;16805;52.956;5.906;2023-06-22T05:49:12;21.00;99.90
29817;DHT22;16805;52.956;5.906;2023-06-22T05:51:38;20.90;99.90
29817;DHT22;16805;52.956;5.906;2023-06-22T05:54:04;20.90;99.90
29817;DHT22;16805;52.956;5.906;2023-06-22T05:56:30;20.90;99.90
29817;DHT22;16805;52.956;5.906;2023-06-22T05:58:56;21.00;99.90
29817;DHT22;16805;52.956;5.906;2023-06-22T06:01:22;21.00;99.90
29817;DHT22;16805;52.956;5.906;2023-06-22T06:03:48;21.00;99.90
29817;DHT22;16805;52.956;5.906;2023-06-22T06:06:15;21.10;99.90
29817;DHT22;16805;52.956;5.906;2023-06-22T06:08:44;21.10;99.90
29817;DHT22;16805;52.956;5.906;2023-06-22T06:11:09;21.20;99.90
29817;DHT22;16805;52.956;5.906;2023-06-22T06:13:35;21.20;99.90
29817;DHT22;16805;52.956;5.906;2023-06-22T06:16:01;21.30;99.90
29817;DHT22;16805;52.956;5.906;2023-06-22T06:18:28;21.30;99.90
29817;DHT22;16805;52.956;5.906;2023-06-22T06:20:54;21.40;99.90
29817;DHT22;16805;52.956;5.906;2023-06-22T06:23:19;21.50;99.90
29817;DHT22;16805;52.956;5.906;2023-06-22T06:25:45;21.60;99.90
29817;DHT22;16805;52.956;5.906;2023-06-22T06:28:11;21.60;99.90
29817;DHT22;16805;52.956;5.906;2023-06-22T06:30:37;21.70;99.90
29817;DHT22;16805;52.956;5.906;2023-06-22T06:33:03;21.80;99.90
29817;DHT22;16805;52.956;5.906;2023-06-22T06:35:34;21.90;99.90
29817;DHT22;16805;52.956;5.906;2023-06-22T06:38:00;21.90;99.90
29817;DHT22;16805;52.956;5.906;2023-06-22T06:40:26;22.00;99.90
29817;DHT22;16805;52.956;5.906;2023-06-22T06:42:52;22.00;99.90
29817;DHT22;16805;52.956;5.906;2023-06-22T06:45:20;22.00;99.90
29817;DHT22;16805;52.956;5.906;2023-06-22T06:47:48;21.90;99.90
29817;DHT22;16805;52.956;5.906;2023-06-22T06:50:14;21.90;99.90
29817;DHT22;16805;52.956;5.906;2023-06-22T06:52:40;21.90;99.90
29817;DHT22;16805;52.956;5.906;2023-06-22T06:55:09;21.90;99.90
29817;DHT22;16805;52.956;5.906;2023-06-22T06:57:39;22.00;99.90
29817;DHT22;16805;52.956;5.906;2023-06-22T07:00:11;22.10;99.90
29817;DHT22;16805;52.956;5.906;2023-06-22T07:02:45;22.20;99.90
29817;DHT22;16805;52.956;5.906;2023-06-22T07:05:14;22.30;99.90
29817;DHT22;16805;52.956;5.906;2023-06-22T07:07:46;22.40;99.90
29817;DHT22;16805;52.956;5.906;2023-06-22T07:10:17;22.40;99.90
29817;DHT22;16805;52.956;5.906;2023-06-22T07:12:45;22.60;99.90
29817;DHT22;16805;52.956;5.906;2023-06-22T07:15:13;22.60;99.90
29817;DHT22;16805;52.956;5.906;2023-06-22T07:17:39;22.70;99.90
29817;DHT22;16805;52.956;5.906;2023-06-22T07:20:08;22.80;99.90
29817;DHT22;16805;52.956;5.906;2023-06-22T07:22:36;22.90;99.90
29817;DHT22;16805;52.956;5.906;2023-06-22T07:25:02;23.00;99.90
29817;DHT22;16805;52.956;5.906;2023-06-22T12:09:17;26.60;99.90
29817;DHT22;16805;52.956;5.906;2023-06-22T13:08:57;26.20;99.90
29817;DHT22;16805;52.956;5.906;2023-06-22T13:45:03;25.90;99.90
29817;DHT22;16805;52.956;5.906;2023-06-22T13:47:30;25.90;99.90
29817;DHT22;16805;52.956;5.906;2023-06-22T13:49:56;25.80;99.90
29817;DHT22;16805;52.956;5.906;2023-06-22T13:52:23;25.80;99.90
29817;DHT22;16805;52.956;5.906;2023-06-22T13:54:49;25.80;99.90
29817;DHT22;16805;52.956;5.906;2023-06-22T13:57:14;25.70;99.90
29817;DHT22;16805;52.956;5.906;2023-06-22T13:59:40;25.70;99.90
29817;DHT22;16805;52.956;5.906;2023-06-22T14:02:06;25.60;99.90
29817;DHT22;16805;52.956;5.906;2023-06-22T14:04:35;25.60;99.90
29817;DHT22;16805;52.956;5.906;2023-06-22T14:07:01;25.60;99.90
29817;DHT22;16805;52.956;5.906;2023-06-22T14:09:27;25.50;99.90
29817;DHT22;16805;52.956;5.906;2023-06-22T14:11:54;25.40;99.90
29817;DHT22;16805;52.956;5.906;2023-06-22T14:14:20;25.40;99.90
29817;DHT22;16805;52.956;5.906;2023-06-22T14:16:46;25.40;99.90
29817;DHT22;16805;52.956;5.906;2023-06-22T14:19:16;25.30;99.90
29817;DHT22;16805;52.956;5.906;2023-06-22T14:21:44;25.30;99.90
29817;DHT22;16805;52.956;5.906;2023-06-22T14:24:10;25.30;99.90
29817;DHT22;16805;52.956;5.906;2023-06-22T14:26:36;25.30;99.90
29817;DHT22;16805;52.956;5.906;2023-06-22T14:29:02;25.20;99.90
29817;DHT22;16805;52.956;5.906;2023-06-22T14:31:29;25.10;99.90
29817;DHT22;16805;52.956;5.906;2023-06-22T14:33:55;25.10;99.90
29817;DHT22;16805;52.956;5.906;2023-06-22T14:36:20;25.00;99.90
29817;DHT22;16805;52.956;5.906;2023-06-22T14:43:54;24.90;99.90
29817;DHT22;16805;52.956;5.906;2023-06-22T14:46:20;24.90;99.90
29817;DHT22;16805;52.956;5.906;2023-06-22T14:48:46;24.80;99.90
29817;DHT22;16805;52.956;5.906;2023-06-22T14:51:13;24.70;99.90
29817;DHT22;16805;52.956;5.906;2023-06-22T14:53:38;24.70;99.90
29817;DHT22;16805;52.956;5.906;2023-06-22T14:56:05;24.60;99.90
29817;DHT22;16805;52.956;5.906;2023-06-22T14:58:31;24.60;99.90
29817;DHT22;16805;52.956;5.906;2023-06-22T15:01:03;24.50;99.90
29817;DHT22;16805;52.956;5.906;2023-06-22T15:03:31;24.50;99.90
29817;DHT22;16805;52.956;5.906;2023-06-22T15:06:01;24.40;99.90
29817;DHT22;16805;52.956;5.906;2023-06-22T15:08:28;24.30;99.90
29817;DHT22;16805;52.956;5.906;2023-06-22T15:10:54;24.20;99.90
29817;DHT22;16805;52.956;5.906;2023-06-22T15:13:19;24.20;99.90
29817;DHT22;16805;52.956;5.906;2023-06-22T15:15:48;24.10;99.90
29817;DHT22;16805;52.956;5.906;2023-06-22T15:18:15;24.10;99.90
29817;DHT22;16805;52.956;5.906;2023-06-22T15:20:42;24.10;99.90
29817;DHT22;16805;52.956;5.906;2023-06-22T15:23:13;24.00;99.90
29817;DHT22;16805;52.956;5.906;2023-06-22T15:25:39;23.90;99.90
29817;DHT22;16805;52.956;5.906;2023-06-22T15:28:06;23.90;99.90
29817;DHT22;16805;52.956;5.906;2023-06-22T15:30:31;23.80;99.90
29817;DHT22;16805;52.956;5.906;2023-06-22T15:32:57;23.80;99.90
29817;DHT22;16805;52.956;5.906;2023-06-22T15:35:23;23.70;99.90
29817;DHT22;16805;52.956;5.906;2023-06-22T15:37:49;23.70;99.90
29817;DHT22;16805;52.956;5.906;2023-06-22T15:40:16;23.60;99.90
29817;DHT22;16805;52.956;5.906;2023-06-22T15:42:42;23.60;99.90
29817;DHT22;16805;52.956;5.906;2023-06-22T15:45:09;23.60;99.90
29817;DHT22;16805;52.956;5.906;2023-06-22T15:47:34;23.50;99.90
29817;DHT22;16805;52.956;5.906;2023-06-22T15:50:00;23.50;99.90
29817;DHT22;16805;52.956;5.906;2023-06-22T15:52:26;23.50;99.90
29817;DHT22;16805;52.956;5.906;2023-06-22T15:54:51;23.50;99.90
29817;DHT22;16805;52.956;5.906;2023-06-22T15:57:19;23.50;99.90
29817;DHT22;16805;52.956;5.906;2023-06-22T15:59:45;23.40;99.90
29817;DHT22;16805;52.956;5.906;2023-06-22T16:02:11;23.40;99.90
29817;DHT22;16805;52.956;5.906;2023-06-22T16:04:37;23.40;99.90
29817;DHT22;16805;52.956;5.906;2023-06-22T16:07:03;23.40;99.90
29817;DHT22;16805;52.956;5.906;2023-06-22T16:09:28;23.30;99.90
29817;DHT22;16805;52.956;5.906;2023-06-22T16:11:56;23.30;99.90
29817;DHT22;16805;52.956;5.906;2023-06-22T16:14:22;23.30;99.90
29817;DHT22;16805;52.956;5.906;2023-06-22T16:16:48;23.20;99.90
29817;DHT22;16805;52.956;5.906;2023-06-22T16:19:14;23.20;99.90
29817;DHT22;16805;52.956;5.906;2023-06-22T16:21:41;23.20;99.90
29817;DHT22;16805;52.956;5.906;2023-06-22T16:24:06;23.10;99.90
29817;DHT22;16805;52.956;5.906;2023-06-22T16:26:39;23.10;99.90
29817;DHT22;16805;52.956;5.906;2023-06-22T16:29:05;23.00;99.90
29817;DHT22;16805;52.956;5.906;2023-06-22T16:31:31;23.00;99.90
29817;DHT22;16805;52.956;5.906;2023-06-22T16:33:57;22.90;99.90
29817;DHT22;16805;52.956;5.906;2023-06-22T16:36:23;22.90;99.90
29817;DHT22;16805;52.956;5.906;2023-06-22T16:38:48;22.90;99.90
29817;DHT22;16805;52.956;5.906;2023-06-22T16:41:16;22.80;99.90
29817;DHT22;16805;52.956;5.906;2023-06-22T16:43:42;22.80;99.90
29817;DHT22;16805;52.956;5.906;2023-06-22T16:46:07;22.80;99.90
29817;DHT22;16805;52.956;5.906;2023-06-22T16:48:36;22.80;99.90
29817;DHT22;16805;52.956;5.906;2023-06-22T16:51:02;22.80;99.90
29817;DHT22;16805;52.956;5.906;2023-06-22T16:53:28;22.70;99.90
29817;DHT22;16805;52.956;5.906;2023-06-22T16:55:54;22.70;99.90
29817;DHT22;16805;52.956;5.906;2023-06-22T16:58:20;22.60;99.90
29817;DHT22;16805;52.956;5.906;2023-06-22T17:00:51;22.60;99.90
29817;DHT22;16805;52.956;5.906;2023-06-22T17:03:27;22.60;99.90
29817;DHT22;16805;52.956;5.906;2023-06-22T17:05:57;22.60;99.90
29817;DHT22;16805;52.956;5.906;2023-06-22T17:08:25;22.50;99.90
29817;DHT22;16805;52.956;5.906;2023-06-22T17:10:53;22.50;99.90
29817;DHT22;16805;52.956;5.906;2023-06-22T17:13:19;22.40;99.90
29817;DHT22;16805;52.956;5.906;2023-06-22T17:15:48;22.40;99.90
29817;DHT22;16805;52.956;5.906;2023-06-22T17:18:16;22.30;99.90
29817;DHT22;16805;52.956;5.906;2023-06-22T17:20:42;22.30;99.90
29817;DHT22;16805;52.956;5.906;2023-06-22T17:23:08;22.30;99.90
29817;DHT22;16805;52.956;5.906;2023-06-22T17:25:35;22.20;99.90
29817;DHT22;16805;52.956;5.906;2023-06-22T17:28:02;22.20;99.90
29817;DHT22;16805;52.956;5.906;2023-06-22T17:30:28;22.20;99.90
29817;DHT22;16805;52.956;5.906;2023-06-22T17:32:54;22.10;99.90
29817;DHT22;16805;52.956;5.906;2023-06-22T17:35:20;22.10;99.90
29817;DHT22;16805;52.956;5.906;2023-06-22T17:37:52;22.00;99.90
29817;DHT22;16805;52.956;5.906;2023-06-22T17:40:19;21.90;99.90
29817;DHT22;16805;52.956;5.906;2023-06-22T17:42:45;21.90;99.90
29817;DHT22;16805;52.956;5.906;2023-06-22T17:45:19;21.90;99.90
29817;DHT22;16805;52.956;5.906;2023-06-22T17:47:49;21.80;99.90
29817;DHT22;16805;52.956;5.906;2023-06-22T17:50:16;21.80;99.90
29817;DHT22;16805;52.956;5.906;2023-06-22T17:52:50;21.80;99.90
29817;DHT22;16805;52.956;5.906;2023-06-22T17:55:19;21.70;99.90
29817;DHT22;16805;52.956;5.906;2023-06-22T17:57:45;21.70;99.90
29817;DHT22;16805;52.956;5.906;2023-06-22T18:00:19;21.70;99.90
29817;DHT22;16805;52.956;5.906;2023-06-22T18:02:44;21.70;99.90
29817;DHT22;16805;52.956;5.906;2023-06-22T18:05:11;21.60;99.90
29817;DHT22;16805;52.956;5.906;2023-06-22T18:07:37;21.60;99.90
29817;DHT22;16805;52.956;5.906;2023-06-22T18:10:08;21.50;99.90
29817;DHT22;16805;52.956;5.906;2023-06-22T18:12:35;21.50;99.90
29817;DHT22;16805;52.956;5.906;2023-06-22T18:15:02;21.50;99.90
29817;DHT22;16805;52.956;5.906;2023-06-22T18:17:28;21.40;99.90
29817;DHT22;16805;52.956;5.906;2023-06-22T18:19:55;21.40;99.90
29817;DHT22;16805;52.956;5.906;2023-06-22T18:22:22;21.30;99.90
29817;DHT22;16805;52.956;5.906;2023-06-22T18:24:49;21.30;99.90
29817;DHT22;16805;52.956;5.906;2023-06-22T18:27:16;21.30;99.90
29817;DHT22;16805;52.956;5.906;2023-06-22T18:29:42;21.20;99.90
29817;DHT22;16805;52.956;5.906;2023-06-22T18:32:12;21.30;99.90
29817;DHT22;16805;52.956;5.906;2023-06-22T18:34:39;21.20;99.90
29817;DHT22;16805;52.956;5.906;2023-06-22T18:37:09;21.20;99.90
29817;DHT22;16805;52.956;5.906;2023-06-22T18:39:38;21.20;99.90
29817;DHT22;16805;52.956;5.906;2023-06-22T18:42:04;21.10;99.90
29817;DHT22;16805;52.956;5.906;2023-06-22T18:44:33;21.10;99.90
29817;DHT22;16805;52.956;5.906;2023-06-22T18:47:05;21.10;99.90
29817;DHT22;16805;52.956;5.906;2023-06-22T18:49:32;21.10;99.90
29817;DHT22;16805;52.956;5.906;2023-06-22T18:52:05;21.10;99.90
29817;DHT22;16805;52.956;5.906;2023-06-22T19:10:25;20.80;99.90
29817;DHT22;16805;52.956;5.906;2023-06-22T19:12:51;20.80;99.90
29817;DHT22;16805;52.956;5.906;2023-06-22T19:15:19;20.80;99.90
29817;DHT22;16805;52.956;5.906;2023-06-22T19:17:48;20.70;99.90
29817;DHT22;16805;52.956;5.906;2023-06-22T19:20:18;20.60;99.90
29817;DHT22;16805;52.956;5.906;2023-06-22T19:22:53;20.60;99.90
29817;DHT22;16805;52.956;5.906;2023-06-22T19:25:29;20.50;99.90
29817;DHT22;16805;52.956;5.906;2023-06-22T19:28:01;20.50;99.90
29817;DHT22;16805;52.956;5.906;2023-06-22T19:30:28;20.40;99.90
29817;DHT22;16805;52.956;5.906;2023-06-22T19:32:58;20.40;99.90
29817;DHT22;16805;52.956;5.906;2023-06-22T19:35:25;20.30;99.90
29817;DHT22;16805;52.956;5.906;2023-06-22T19:37:52;20.30;99.90
29817;DHT22;16805;52.956;5.906;2023-06-22T19:40:17;20.30;99.90
29817;DHT22;16805;52.956;5.906;2023-06-22T19:42:44;20.20;99.90
29817;DHT22;16805;52.956;5.906;2023-06-22T19:45:14;20.20;99.90
29817;DHT22;16805;52.956;5.906;2023-06-22T19:47:42;20.20;99.90
29817;DHT22;16805;52.956;5.906;2023-06-22T19:50:09;20.10;99.90
29817;DHT22;16805;52.956;5.906;2023-06-22T19:52:37;20.10;99.90
29817;DHT22;16805;52.956;5.906;2023-06-22T19:55:03;20.10;99.90
29817;DHT22;16805;52.956;5.906;2023-06-22T19:57:37;20.10;99.90
29817;DHT22;16805;52.956;5.906;2023-06-22T20:00:07;20.10;99.90
29817;DHT22;16805;52.956;5.906;2023-06-22T20:02:39;20.00;99.90
29817;DHT22;16805;52.956;5.906;2023-06-22T20:05:06;20.00;99.90
29817;DHT22;16805;52.956;5.906;2023-06-22T20:07:50;19.90;99.90
29817;DHT22;16805;52.956;5.906;2023-06-22T20:10:18;19.90;99.90
29817;DHT22;16805;52.956;5.906;2023-06-22T20:12:48;19.90;99.90
29817;DHT22;16805;52.956;5.906;2023-06-22T20:17:43;19.90;99.90
29817;DHT22;16805;52.956;5.906;2023-06-22T20:20:23;19.90;99.90
29817;DHT22;16805;52.956;5.906;2023-06-22T20:22:49;19.90;99.90
29817;DHT22;16805;52.956;5.906;2023-06-22T20:25:19;19.90;99.90
29817;DHT22;16805;52.956;5.906;2023-06-22T20:27:45;19.90;99.90
29817;DHT22;16805;52.956;5.906;2023-06-22T20:30:20;19.90;99.90
29817;DHT22;16805;52.956;5.906;2023-06-22T20:32:51;19.80;99.90
29817;DHT22;16805;52.956;5.906;2023-06-22T20:35:18;19.80;99.90
29817;DHT22;16805;52.956;5.906;2023-06-22T20:37:47;19.80;99.90
29817;DHT22;16805;52.956;5.906;2023-06-22T20:40:13;19.80;99.90
29817;DHT22;16805;52.956;5.906;2023-06-22T20:42:40;19.80;99.90
29817;DHT22;16805;52.956;5.906;2023-06-22T20:45:07;19.80;99.90
29817;DHT22;16805;52.956;5.906;2023-06-22T20:47:33;19.80;99.90
29817;DHT22;16805;52.956;5.906;2023-06-22T20:49:59;19.70;99.90
29817;DHT22;16805;52.956;5.906;2023-06-22T20:52:28;19.80;99.90
29817;DHT22;16805;52.956;5.906;2023-06-22T20:54:54;19.70;99.90
29817;DHT22;16805;52.956;5.906;2023-06-22T20:57:21;19.70;99.90
29817;DHT22;16805;52.956;5.906;2023-06-22T20:59:47;19.70;99.90
29817;DHT22;16805;52.956;5.906;2023-06-22T21:02:13;19.60;99.90
29817;DHT22;16805;52.956;5.906;2023-06-22T21:04:41;19.60;99.90
29817;DHT22;16805;52.956;5.906;2023-06-22T21:07:06;19.60;99.90
29817;DHT22;16805;52.956;5.906;2023-06-22T21:09:32;19.60;99.90
29817;DHT22;16805;52.956;5.906;2023-06-22T21:11:58;19.50;99.90
29817;DHT22;16805;52.956;5.906;2023-06-22T21:14:24;19.60;99.90
29817;DHT22;16805;52.956;5.906;2023-06-22T21:16:50;19.50;99.90
29817;DHT22;16805;52.956;5.906;2023-06-22T21:19:16;19.50;99.90
29817;DHT22;16805;52.956;5.906;2023-06-22T21:21:41;19.50;99.90
29817;DHT22;16805;52.956;5.906;2023-06-22T21:24:07;19.50;99.90
29817;DHT22;16805;52.956;5.906;2023-06-22T21:26:33;19.50;99.90
29817;DHT22;16805;52.956;5.906;2023-06-22T21:28:58;19.40;99.90
29817;DHT22;16805;52.956;5.906;2023-06-22T21:31:24;19.40;99.90
29817;DHT22;16805;52.956;5.906;2023-06-22T21:33:50;19.40;99.90
29817;DHT22;16805;52.956;5.906;2023-06-22T21:36:15;19.40;99.90
29817;DHT22;16805;52.956;5.906;2023-06-22T21:38:41;19.30;99.90
29817;DHT22;16805;52.956;5.906;2023-06-22T21:41:08;19.30;99.90
29817;DHT22;16805;52.956;5.906;2023-06-22T21:43:33;19.30;99.90
29817;DHT22;16805;52.956;5.906;2023-06-22T21:46:01;19.30;99.90
29817;DHT22;16805;52.956;5.906;2023-06-22T21:48:27;19.30;99.90
29817;DHT22;16805;52.956;5.906;2023-06-22T21:50:52;19.40;99.90
29817;DHT22;16805;52.956;5.906;2023-06-22T21:53:18;19.40;99.90
29817;DHT22;16805;52.956;5.906;2023-06-22T21:55:44;19.40;99.90
29817;DHT22;16805;52.956;5.906;2023-06-22T21:58:10;19.40;99.90
29817;DHT22;16805;52.956;5.906;2023-06-22T22:00:36;19.30;99.90
29817;DHT22;16805;52.956;5.906;2023-06-22T22:03:01;19.30;99.90
29817;DHT22;16805;52.956;5.906;2023-06-22T22:05:27;19.30;99.90
29817;DHT22;16805;52.956;5.906;2023-06-22T22:07:54;19.30;99.90
29817;DHT22;16805;52.956;5.906;2023-06-22T22:10:19;19.30;99.90
29817;DHT22;16805;52.956;5.906;2023-06-22T22:15:20;19.30;99.90
29817;DHT22;16805;52.956;5.906;2023-06-22T22:17:46;19.30;99.90
29817;DHT22;16805;52.956;5.906;2023-06-22T22:20:12;19.30;99.90
29817;DHT22;16805;52.956;5.906;2023-06-22T22:22:38;19.30;99.90
29817;DHT22;16805;52.956;5.906;2023-06-22T22:25:04;19.30;99.90
29817;DHT22;16805;52.956;5.906;2023-06-22T22:27:30;19.20;99.90
29817;DHT22;16805;52.956;5.906;2023-06-22T22:29:55;19.20;99.90
29817;DHT22;16805;52.956;5.906;2023-06-22T22:32:21;19.20;99.90
29817;DHT22;16805;52.956;5.906;2023-06-22T22:34:47;19.10;99.90